createdAt,value
2023-03-16T00:00:53.868Z,2.59
2023-03-16T00:03:30.931Z,2.55
2023-03-16T00:06:04.704Z,2.52
2023-03-16T00:08:39.456Z,2.48
2023-03-16T00:11:13.832Z,2.45
2023-03-16T00:13:47.456Z,2.40
2023-03-16T00:16:22.123Z,2.36
2023-03-16T00:18:55.799Z,2.31
2023-03-16T00:21:30.896Z,2.29
2023-03-16T00:24:04.636Z,2.26
2023-03-16T00:26:38.575Z,2.25
2023-03-16T00:29:12.359Z,2.26
2023-03-16T00:31:46.187Z,2.27
2023-03-16T00:34:20.065Z,2.29
2023-03-16T00:36:55.780Z,2.28
2023-03-16T00:39:29.566Z,2.27
2023-03-16T00:42:03.488Z,2.26
2023-03-16T00:44:36.979Z,2.22
2023-03-16T00:47:14.845Z,2.17
2023-03-16T00:49:48.658Z,2.14
2023-03-16T00:52:23.648Z,2.10
2023-03-16T00:54:57.899Z,2.06
2023-03-16T00:57:32.334Z,2.03
2023-03-16T01:00:13.241Z,2.03
2023-03-16T01:02:46.923Z,2.04
2023-03-16T01:05:20.982Z,2.03
2023-03-16T01:07:54.775Z,2.01
2023-03-16T01:10:29.778Z,1.99
2023-03-16T01:13:03.761Z,1.97
2023-03-16T01:15:37.776Z,1.94
2023-03-16T01:18:13.955Z,1.92
2023-03-16T01:20:51.272Z,1.88
2023-03-16T01:23:25.365Z,1.84
2023-03-16T01:25:59.357Z,1.79
2023-03-16T01:28:34.618Z,1.75
2023-03-16T01:31:10.825Z,1.73
2023-03-16T01:33:45.767Z,1.71
2023-03-16T01:36:22.849Z,1.70
2023-03-16T01:38:59.291Z,1.70
2023-03-16T01:41:36.708Z,1.69
2023-03-16T01:44:12.545Z,1.65
2023-03-16T01:46:46.412Z,1.63
2023-03-16T01:49:24.362Z,1.61
2023-03-16T01:52:04.395Z,1.57
2023-03-16T01:54:42.693Z,1.53
2023-03-16T01:57:20.384Z,1.49
2023-03-16T01:59:58.179Z,1.44
2023-03-16T02:02:34.177Z,1.41
2023-03-16T02:05:13.855Z,1.39
2023-03-16T02:07:51.298Z,1.37
2023-03-16T02:10:25.092Z,1.37
2023-03-16T02:13:00.008Z,1.36
2023-03-16T02:15:36.419Z,1.36
2023-03-16T02:18:11.541Z,1.35
2023-03-16T02:20:52.116Z,1.31
2023-03-16T02:23:27.704Z,1.29
2023-03-16T02:26:09.225Z,1.26
2023-03-16T02:28:51.763Z,1.26
2023-03-16T02:31:25.469Z,1.26
2023-03-16T02:34:01.995Z,1.27
2023-03-16T02:36:36.976Z,1.30
2023-03-16T02:39:11.063Z,1.29
2023-03-16T02:41:52.622Z,1.28
2023-03-16T02:44:29.642Z,1.26
2023-03-16T02:47:07.477Z,1.23
2023-03-16T02:49:44.041Z,1.18
2023-03-16T02:52:17.788Z,1.15
2023-03-16T02:54:51.656Z,1.13
2023-03-16T02:57:25.316Z,1.12
2023-03-16T02:59:59.619Z,1.10
2023-03-16T03:02:33.146Z,1.09
2023-03-16T03:05:06.973Z,1.08
2023-03-16T03:07:40.626Z,1.07
2023-03-16T03:10:14.989Z,1.05
2023-03-16T03:12:50.236Z,1.02
2023-03-16T03:15:24.193Z,1.01
2023-03-16T03:18:06.837Z,1.00
2023-03-16T03:20:40.255Z,1.00
2023-03-16T03:23:15.676Z,1.01
2023-03-16T03:25:49.510Z,1.02
2023-03-16T03:28:23.389Z,1.03
2023-03-16T03:30:57.885Z,1.02
2023-03-16T03:33:34.021Z,1.01
2023-03-16T03:36:09.792Z,0.98
2023-03-16T03:38:44.654Z,0.97
2023-03-16T03:41:19.408Z,0.95
2023-03-16T03:43:53.144Z,0.93
2023-03-16T03:46:27.559Z,0.91
2023-03-16T03:49:04.480Z,0.91
2023-03-16T03:51:39.687Z,0.91
2023-03-16T03:54:17.499Z,0.92
2023-03-16T03:56:59.576Z,0.91
2023-03-16T03:59:35.305Z,0.90
2023-03-16T04:02:28.364Z,0.88
2023-03-16T04:05:02.686Z,0.85
2023-03-16T04:07:36.653Z,0.84
2023-03-16T04:10:14.833Z,0.83
2023-03-16T04:12:49.801Z,0.83
2023-03-16T04:15:24.073Z,0.84
2023-03-16T04:18:10.375Z,0.86
2023-03-16T04:20:44.148Z,0.87
2023-03-16T04:23:20.864Z,0.86
2023-03-16T04:25:56.056Z,0.85
2023-03-16T04:28:29.783Z,0.84
2023-03-16T04:31:07.631Z,0.83
2023-03-16T04:33:46.141Z,0.81
2023-03-16T04:36:20.102Z,0.80
2023-03-16T04:38:55.319Z,0.78
2023-03-16T04:41:30.018Z,0.79
2023-03-16T04:44:14.054Z,0.81
2023-03-16T04:46:48.088Z,0.83
2023-03-16T04:49:21.905Z,0.83
2023-03-16T04:51:55.646Z,0.83
2023-03-16T04:54:29.204Z,0.82
2023-03-16T04:57:03.966Z,0.80
2023-03-16T04:59:48.931Z,0.77
2023-03-16T05:02:29.526Z,0.77
2023-03-16T05:05:06.963Z,0.78
2023-03-16T05:07:42.002Z,0.81
2023-03-16T05:10:17.281Z,0.85
2023-03-16T05:12:51.194Z,0.90
2023-03-16T05:15:25.117Z,0.94
2023-03-16T05:18:34.852Z,0.97
2023-03-16T05:21:08.934Z,0.99
2023-03-16T05:23:58.746Z,1.03
2023-03-16T05:26:33.187Z,1.08
2023-03-16T05:29:07.502Z,1.12
2023-03-16T05:31:41.528Z,1.17
2023-03-16T05:34:19.746Z,1.24
2023-03-16T05:36:53.350Z,1.44
2023-03-16T05:39:28.945Z,1.98
2023-03-16T05:42:02.821Z,2.76
2023-03-16T05:44:56.190Z,3.88
2023-03-16T05:47:52.208Z,5.23
2023-03-16T05:50:26.862Z,6.05
2023-03-16T05:53:00.746Z,6.55
2023-03-16T05:55:34.773Z,6.73
2023-03-16T05:58:09.275Z,7.03
2023-03-16T06:00:43.449Z,7.40
2023-03-16T06:03:27.854Z,7.70
2023-03-16T06:06:02.479Z,8.27
2023-03-16T06:08:45.115Z,8.98
2023-03-16T06:11:18.644Z,9.54
2023-03-16T06:13:52.401Z,9.87
2023-03-16T06:16:26.495Z,10.13
2023-03-16T06:19:00.332Z,10.57
2023-03-16T06:21:35.523Z,10.83
2023-03-16T06:24:16.386Z,10.51
2023-03-16T06:26:50.305Z,10.41
2023-03-16T06:29:24.590Z,10.83
2023-03-16T06:31:58.301Z,11.14
2023-03-16T06:34:32.463Z,11.68
2023-03-16T06:37:06.622Z,12.52
2023-03-16T06:39:40.373Z,13.78
2023-03-16T06:42:14.010Z,15.27
2023-03-16T06:44:47.915Z,16.75
2023-03-16T06:47:22.294Z,18.04
2023-03-16T06:49:55.977Z,19.00
2023-03-16T06:52:31.989Z,19.84
2023-03-16T06:55:05.872Z,20.61
2023-03-16T06:57:40.818Z,21.39
2023-03-16T07:00:17.617Z,22.05
2023-03-16T07:02:51.649Z,22.73
2023-03-16T07:05:26.382Z,23.21
2023-03-16T07:08:00.148Z,23.75
2023-03-16T07:10:34.747Z,24.31
2023-03-16T07:13:08.512Z,24.66
2023-03-16T07:15:42.283Z,24.77
2023-03-16T07:18:16.368Z,24.63
2023-03-16T07:20:50.692Z,24.80
2023-03-16T07:23:24.745Z,25.37
2023-03-16T07:26:00.043Z,25.97
2023-03-16T07:28:34.316Z,26.46
2023-03-16T07:31:09.808Z,27.05
2023-03-16T07:33:46.425Z,27.18
2023-03-16T07:36:24.280Z,27.23
2023-03-16T07:39:01.883Z,27.39
2023-03-16T07:41:35.769Z,27.51
2023-03-16T07:44:23.850Z,27.37
2023-03-16T07:46:59.522Z,27.60
2023-03-16T07:49:34.815Z,27.61
2023-03-16T07:52:09.558Z,26.93
2023-03-16T07:54:45.659Z,26.54
2023-03-16T07:57:20.672Z,25.64
2023-03-16T07:59:54.467Z,23.84
2023-03-16T08:02:28.789Z,22.60
2023-03-16T08:05:04.454Z,22.18
2023-03-16T08:07:38.475Z,22.00
2023-03-16T08:10:19.125Z,22.28
2023-03-16T08:13:01.238Z,23.53
2023-03-16T08:15:36.162Z,24.85
2023-03-16T08:18:18.088Z,25.78
2023-03-16T08:20:52.841Z,26.30
2023-03-16T08:23:26.714Z,27.04
2023-03-16T08:26:01.448Z,27.79
2023-03-16T08:28:35.235Z,28.08
2023-03-16T08:31:14.931Z,27.66
2023-03-16T08:33:58.566Z,27.28
2023-03-16T08:36:34.009Z,27.22
2023-03-16T08:39:07.950Z,27.10
2023-03-16T08:41:48.483Z,26.30
2023-03-16T08:44:30.969Z,25.43
2023-03-16T08:47:05.525Z,24.92
2023-03-16T08:49:40.148Z,25.16
2023-03-16T08:52:19.054Z,25.42
2023-03-16T08:55:03.096Z,25.46
2023-03-16T08:57:39.612Z,25.10
2023-03-16T09:00:15.908Z,24.49
2023-03-16T09:02:50.210Z,23.74
2023-03-16T09:05:26.076Z,23.50
2023-03-16T09:08:00.419Z,22.75
2023-03-16T09:10:34.393Z,22.41
2023-03-16T09:13:08.955Z,21.80
2023-03-16T09:15:43.349Z,21.10
2023-03-16T09:18:18.834Z,20.85
2023-03-16T09:20:52.304Z,21.19
2023-03-16T09:23:26.563Z,22.04
2023-03-16T09:26:03.481Z,23.11
2023-03-16T09:28:41.039Z,24.29
2023-03-16T09:31:20.231Z,25.25
2023-03-16T09:33:54.747Z,24.72
2023-03-16T09:36:28.778Z,23.42
2023-03-16T09:39:02.943Z,22.10
2023-03-16T09:41:47.970Z,20.51
2023-03-16T09:44:35.970Z,19.23
2023-03-16T09:47:13.273Z,18.24
2023-03-16T09:49:49.436Z,17.26
2023-03-16T09:52:33.779Z,16.66
2023-03-16T09:55:15.157Z,17.17
2023-03-16T09:57:52.767Z,17.66
2023-03-16T10:00:33.077Z,17.99
2023-03-16T10:03:25.456Z,18.88
2023-03-16T10:06:04.149Z,20.64
2023-03-16T10:08:42.396Z,22.08
2023-03-16T10:11:36.921Z,21.82
2023-03-16T10:14:20.565Z,21.06
2023-03-16T10:16:59.045Z,20.39
2023-03-16T10:19:37.137Z,19.61
2023-03-16T10:22:22.177Z,18.74
2023-03-16T10:25:05.760Z,17.80
2023-03-16T10:27:41.099Z,17.18
2023-03-16T10:30:25.205Z,16.68
2023-03-16T10:33:03.925Z,16.09
2023-03-16T10:35:43.329Z,15.50
2023-03-16T10:38:33.976Z,14.86
2023-03-16T10:41:16.689Z,14.21
2023-03-16T10:43:53.561Z,14.66
2023-03-16T10:46:29.141Z,15.56
2023-03-16T10:49:03.756Z,16.92
2023-03-16T10:51:39.850Z,18.60
2023-03-16T10:54:23.892Z,19.14
2023-03-16T10:56:57.923Z,19.28
2023-03-16T10:59:35.391Z,20.55
2023-03-16T11:02:21.011Z,21.80
2023-03-16T11:04:57.726Z,22.60
2023-03-16T11:07:31.794Z,23.33
2023-03-16T11:10:26.986Z,24.23
2023-03-16T11:13:09.119Z,25.05
2023-03-16T11:15:46.577Z,25.30
2023-03-16T11:18:30.429Z,25.51
2023-03-16T11:21:10.030Z,25.95
2023-03-16T11:23:50.489Z,25.70
2023-03-16T11:26:29.520Z,24.11
2023-03-16T11:29:10.172Z,22.52
2023-03-16T11:31:49.803Z,20.95
2023-03-16T11:34:28.600Z,19.31
2023-03-16T11:37:15.346Z,17.93
2023-03-16T11:39:58.851Z,16.71
2023-03-16T11:42:39.889Z,15.76
2023-03-16T11:45:27.721Z,14.86
2023-03-16T11:48:21.710Z,14.25
2023-03-16T11:51:06.633Z,13.71
2023-03-16T11:54:02.977Z,13.32
2023-03-16T11:56:41.900Z,12.93
2023-03-16T11:59:48.979Z,12.66
2023-03-16T12:02:41.096Z,12.55
2023-03-16T12:05:33.871Z,12.45
2023-03-16T12:08:24.916Z,12.35
2023-03-16T12:11:04.697Z,12.30
2023-03-16T12:13:52.905Z,12.61
2023-03-16T12:16:48.325Z,13.52
2023-03-16T12:19:31.032Z,13.60
2023-03-16T12:22:15.598Z,13.31
2023-03-16T12:24:50.746Z,13.03
2023-03-16T12:27:28.301Z,12.82
2023-03-16T12:30:15.907Z,12.54
2023-03-16T12:33:00.894Z,12.33
2023-03-16T12:35:44.886Z,12.15
2023-03-16T12:38:38.230Z,11.95
2023-03-16T12:41:32.463Z,11.69
2023-03-16T12:44:21.318Z,11.46
2023-03-16T12:47:02.764Z,11.19
2023-03-16T12:49:38.805Z,10.92
2023-03-16T12:52:15.340Z,10.59
2023-03-16T12:55:07.578Z,10.37
2023-03-16T12:57:43.741Z,10.19
2023-03-16T13:00:20.064Z,10.02
2023-03-16T13:03:00.094Z,9.92
2023-03-16T13:05:36.676Z,9.91
2023-03-16T13:08:13.985Z,10.27
2023-03-16T13:11:04.721Z,11.39
2023-03-16T13:13:50.058Z,12.35
2023-03-16T13:16:32.505Z,12.80
2023-03-16T13:19:26.582Z,13.01
2023-03-16T13:22:21.434Z,13.13
2023-03-16T13:24:57.850Z,12.87
2023-03-16T13:27:35.624Z,12.49
2023-03-16T13:30:22.756Z,12.22
2023-03-16T13:33:03.042Z,11.95
2023-03-16T13:35:41.400Z,11.62
2023-03-16T13:38:20.324Z,11.24
2023-03-16T13:40:56.952Z,11.04
2023-03-16T13:43:36.103Z,10.85
2023-03-16T13:46:20.079Z,10.76
2023-03-16T13:48:53.970Z,10.70
2023-03-16T13:51:27.995Z,10.63
2023-03-16T13:54:06.659Z,10.55
2023-03-16T13:56:40.580Z,10.52
2023-03-16T13:59:14.696Z,10.46
2023-03-16T14:01:50.208Z,10.40
2023-03-16T14:04:25.789Z,10.34
2023-03-16T14:07:01.187Z,10.23
2023-03-16T14:09:37.304Z,10.16
2023-03-16T14:12:18.307Z,10.08
2023-03-16T14:14:56.769Z,9.98
2023-03-16T14:17:32.293Z,9.86
2023-03-16T14:20:08.538Z,9.79
2023-03-16T14:22:42.346Z,9.77
2023-03-16T14:25:22.894Z,9.74
2023-03-16T14:28:04.122Z,9.65
2023-03-16T14:30:38.666Z,9.58
2023-03-16T14:33:30.143Z,9.48
2023-03-16T14:36:13.373Z,9.39
2023-03-16T14:38:48.641Z,9.31
2023-03-16T14:41:29.336Z,9.26
2023-03-16T14:44:04.692Z,9.27
2023-03-16T14:46:42.741Z,9.32
2023-03-16T14:49:25.629Z,9.37
2023-03-16T14:52:03.831Z,9.37
2023-03-16T14:54:37.750Z,9.35
2023-03-16T14:57:19.933Z,9.28
2023-03-16T14:59:54.538Z,9.26
2023-03-16T15:02:32.211Z,9.26
2023-03-16T15:05:07.647Z,9.31
2023-03-16T15:07:43.587Z,9.37
2023-03-16T15:10:27.084Z,9.44
2023-03-16T15:13:13.641Z,9.49
2023-03-16T15:15:49.082Z,9.48
2023-03-16T15:18:22.853Z,9.43
2023-03-16T15:20:56.970Z,9.40
2023-03-16T15:23:31.203Z,9.31
2023-03-16T15:26:07.820Z,9.20
2023-03-16T15:28:41.751Z,9.03
2023-03-16T15:31:16.472Z,8.84
2023-03-16T15:33:50.345Z,8.71
2023-03-16T15:36:25.469Z,8.63
2023-03-16T15:38:58.924Z,8.55
2023-03-16T15:41:46.810Z,8.45
2023-03-16T15:44:21.515Z,8.37
2023-03-16T15:46:56.167Z,8.32
2023-03-16T15:49:32.456Z,8.30
2023-03-16T15:52:29.033Z,8.31
2023-03-16T15:55:08.271Z,8.32
2023-03-16T15:57:42.048Z,8.28
2023-03-16T16:00:35.928Z,8.25
2023-03-16T16:03:13.434Z,8.20
2023-03-16T16:05:47.824Z,8.14
2023-03-16T16:08:21.764Z,8.07
2023-03-16T16:10:57.697Z,8.01
2023-03-16T16:13:43.537Z,7.95
2023-03-16T16:16:20.736Z,7.88
2023-03-16T16:18:54.709Z,7.77
2023-03-16T16:21:31.863Z,7.67
2023-03-16T16:24:06.052Z,7.57
2023-03-16T16:26:54.198Z,7.48
2023-03-16T16:29:34.244Z,7.39
2023-03-16T16:32:22.654Z,7.26
2023-03-16T16:35:03.862Z,7.14
2023-03-16T16:37:39.367Z,7.02
2023-03-16T16:40:23.570Z,6.95
2023-03-16T16:42:58.297Z,6.88
2023-03-16T16:45:33.592Z,6.82
2023-03-16T16:48:25.169Z,6.78
2023-03-16T16:50:59.884Z,6.78
2023-03-16T16:53:34.718Z,6.77
2023-03-16T16:56:14.175Z,6.78
2023-03-16T16:58:49.127Z,6.79
2023-03-16T17:01:28.785Z,6.80
2023-03-16T17:04:04.054Z,6.79
2023-03-16T17:06:38.216Z,6.78
2023-03-16T17:09:14.723Z,6.73
2023-03-16T17:11:50.521Z,6.65
2023-03-16T17:14:28.787Z,6.55
2023-03-16T17:17:09.004Z,6.45
2023-03-16T17:19:47.322Z,6.34
2023-03-16T17:22:26.661Z,6.25
2023-03-16T17:25:01.364Z,6.17
2023-03-16T17:27:35.865Z,6.10
2023-03-16T17:30:24.740Z,6.02
2023-03-16T17:33:04.836Z,5.92
2023-03-16T17:35:41.813Z,5.85
2023-03-16T17:38:23.063Z,5.77
2023-03-16T17:40:59.675Z,5.69
2023-03-16T17:43:38.075Z,5.61
2023-03-16T17:46:17.174Z,5.54
2023-03-16T17:48:57.634Z,5.47
2023-03-16T17:51:40.358Z,5.40
2023-03-16T17:54:22.226Z,5.30
2023-03-16T17:56:58.220Z,5.23
2023-03-16T17:59:39.455Z,5.18
2023-03-16T18:02:41.231Z,5.11
2023-03-16T18:05:26.427Z,5.03
2023-03-16T18:08:10.517Z,4.98
2023-03-16T18:10:55.702Z,4.96
2023-03-16T18:13:35.801Z,4.94
2023-03-16T18:16:17.005Z,4.94
2023-03-16T18:19:01.593Z,4.95
2023-03-16T18:21:38.548Z,4.98
2023-03-16T18:24:22.491Z,5.02
2023-03-16T18:26:59.746Z,5.09
2023-03-16T18:29:43.209Z,5.14
2023-03-16T18:32:26.398Z,5.19
2023-03-16T18:35:04.725Z,5.21
2023-03-16T18:37:44.615Z,5.20
2023-03-16T18:40:26.392Z,5.17
2023-03-16T18:43:02.716Z,5.09
2023-03-16T18:45:40.520Z,5.02
2023-03-16T18:48:26.115Z,4.95
2023-03-16T18:51:05.602Z,4.88
2023-03-16T18:53:42.414Z,4.82
2023-03-16T18:56:28.952Z,4.79
2023-03-16T18:59:07.120Z,4.81
2023-03-16T19:01:47.102Z,4.84
2023-03-16T19:04:34.505Z,4.86
2023-03-16T19:07:27.698Z,4.87
2023-03-16T19:10:06.792Z,4.84
2023-03-16T19:12:46.620Z,4.79
2023-03-16T19:15:30.030Z,4.76
2023-03-16T19:18:14.097Z,4.73
2023-03-16T19:20:54.945Z,4.73
2023-03-16T19:23:37.244Z,4.74
2023-03-16T19:26:15.886Z,4.77
2023-03-16T19:28:54.038Z,4.80
2023-03-16T19:31:37.806Z,4.83
2023-03-16T19:34:26.681Z,4.85
2023-03-16T19:37:07.806Z,4.88
2023-03-16T19:39:45.124Z,4.93
2023-03-16T19:42:36.120Z,4.98
2023-03-16T19:45:21.029Z,5.01
2023-03-16T19:47:58.592Z,5.04
2023-03-16T19:50:35.800Z,5.09
2023-03-16T19:53:25.634Z,5.11
2023-03-16T19:56:04.966Z,5.14
2023-03-16T19:58:42.678Z,5.17
2023-03-16T20:01:33.807Z,5.21
2023-03-16T20:04:20.521Z,5.21
2023-03-16T20:06:57.473Z,5.21
2023-03-16T20:09:39.809Z,5.20
2023-03-16T20:12:38.694Z,5.23
2023-03-16T20:15:18.864Z,5.30
2023-03-16T20:17:55.290Z,5.35
2023-03-16T20:20:34.685Z,5.38
2023-03-16T20:23:22.003Z,5.38
2023-03-16T20:26:05.720Z,5.40
2023-03-16T20:28:43.483Z,5.43
2023-03-16T20:31:27.478Z,5.45
2023-03-16T20:34:03.063Z,5.44
2023-03-16T20:36:39.104Z,5.44
2023-03-16T20:39:17.846Z,5.43
2023-03-16T20:41:55.838Z,5.41
2023-03-16T20:44:33.912Z,5.41
2023-03-16T20:47:19.538Z,5.40
2023-03-16T20:50:00.061Z,5.38
2023-03-16T20:52:38.359Z,5.34
2023-03-16T20:55:20.636Z,5.28
2023-03-16T20:57:58.483Z,5.21
2023-03-16T21:00:40.010Z,5.14
2023-03-16T21:03:24.994Z,5.11
2023-03-16T21:06:02.010Z,5.04
2023-03-16T21:08:36.923Z,4.95
2023-03-16T21:11:26.769Z,4.87
2023-03-16T21:14:05.189Z,4.79
2023-03-16T21:16:40.762Z,4.75
2023-03-16T21:19:20.233Z,4.71
2023-03-16T21:21:56.328Z,4.62
2023-03-16T21:24:31.603Z,4.55
2023-03-16T21:27:05.277Z,4.49
2023-03-16T21:29:39.242Z,4.42
2023-03-16T21:32:23.416Z,4.34
2023-03-16T21:34:59.417Z,4.27
2023-03-16T21:37:33.566Z,4.20
2023-03-16T21:40:16.956Z,4.13
2023-03-16T21:42:52.062Z,4.04
2023-03-16T21:45:26.057Z,3.96
2023-03-16T21:48:00.149Z,3.88
2023-03-16T21:50:36.077Z,3.82
2023-03-16T21:53:17.840Z,3.78
2023-03-16T21:55:52.328Z,3.75
2023-03-16T21:58:27.571Z,3.72
2023-03-16T22:01:01.819Z,3.69
2023-03-16T22:03:50.419Z,3.66
2023-03-16T22:06:28.145Z,3.63
2023-03-16T22:09:03.158Z,3.60
2023-03-16T22:11:36.611Z,3.55
2023-03-16T22:14:10.392Z,3.48
2023-03-16T22:16:45.033Z,3.42
2023-03-16T22:19:19.272Z,3.34
2023-03-16T22:21:53.020Z,3.31
2023-03-16T22:24:28.846Z,3.29
2023-03-16T22:27:02.787Z,3.25
2023-03-16T22:29:36.928Z,3.22
2023-03-16T22:32:17.300Z,3.20
2023-03-16T22:34:53.018Z,3.18
2023-03-16T22:37:28.961Z,3.15
2023-03-16T22:40:03.175Z,3.12
2023-03-16T22:42:38.554Z,3.08
2023-03-16T22:45:23.092Z,3.04
2023-03-16T22:47:58.549Z,3.00
2023-03-16T22:50:35.912Z,2.96
2023-03-16T22:53:13.370Z,2.90
2023-03-16T22:55:47.088Z,2.86
2023-03-16T22:58:31.626Z,2.82
2023-03-16T23:01:17.192Z,2.77
2023-03-16T23:03:53.256Z,2.74
2023-03-16T23:06:28.246Z,2.70
2023-03-16T23:09:02.634Z,2.67
2023-03-16T23:11:37.631Z,2.65
2023-03-16T23:14:16.310Z,2.61
2023-03-16T23:16:50.661Z,2.57
2023-03-16T23:19:30.160Z,2.54
2023-03-16T23:22:06.408Z,2.51
2023-03-16T23:24:39.986Z,2.46
2023-03-16T23:27:21.635Z,2.41
2023-03-16T23:29:55.253Z,2.36
2023-03-16T23:32:29.445Z,2.31
2023-03-16T23:35:03.081Z,2.30
2023-03-16T23:37:36.932Z,2.30
2023-03-16T23:40:12.403Z,2.29
2023-03-16T23:42:47.233Z,2.32
2023-03-16T23:45:31.510Z,2.31
2023-03-16T23:48:09.015Z,2.27
2023-03-16T23:50:44.996Z,2.23
2023-03-16T23:53:20.797Z,2.21
2023-03-16T23:55:54.490Z,2.18
2023-03-16T23:58:28.030Z,2.17
